createdAt,value
2018-02-15T00:02:03.162Z,96603.38
2018-02-15T00:04:29.029Z,96603.42
2018-02-15T00:06:54.904Z,96600.44
2018-02-15T00:09:20.757Z,96582.73
2018-02-15T00:11:47.474Z,96594.64
2018-02-15T00:14:13.350Z,96599.28
2018-02-15T00:16:42.265Z,96589.85
2018-02-15T00:19:08.132Z,96581.73
2018-02-15T00:21:36.983Z,96586.03
2018-02-15T00:24:02.836Z,96588.55
2018-02-15T00:26:32.254Z,96593.69
2018-02-15T00:28:58.094Z,96587.30
2018-02-15T00:31:27.270Z,96577.98
2018-02-15T00:33:53.125Z,96575.32
2018-02-15T00:36:22.548Z,96570.26
2018-02-15T00:38:48.427Z,96566.42
2018-02-15T00:41:14.270Z,96565.74
2018-02-15T00:43:40.148Z,96565.41
2018-02-15T00:46:05.974Z,96559.18
2018-02-15T00:48:33.093Z,96544.28
2018-02-15T00:50:58.970Z,96545.15
2018-02-15T00:53:28.520Z,96563.20
2018-02-15T00:55:54.354Z,96578.33
2018-02-15T00:58:23.676Z,96577.77
2018-02-15T01:00:49.534Z,96580.66
2018-02-15T01:03:18.567Z,96583.56
2018-02-15T01:05:44.431Z,96582.69
2018-02-15T01:08:13.443Z,96583.98
2018-02-15T01:10:39.293Z,96576.58
2018-02-15T01:13:06.128Z,96578.28
2018-02-15T01:15:31.960Z,96590.26
2018-02-15T01:17:57.818Z,96588.84
2018-02-15T01:20:23.675Z,96590.50
2018-02-15T01:22:49.501Z,96598.66
2018-02-15T01:25:18.887Z,96596.48
2018-02-15T01:27:44.744Z,96594.00
2018-02-15T01:30:12.514Z,96586.19
2018-02-15T01:32:38.357Z,96582.51
2018-02-15T01:37:35.117Z,96568.06
2018-02-15T01:40:02.034Z,96576.50
2018-02-15T01:42:27.900Z,96568.06
2018-02-15T01:47:24.661Z,96556.56
2018-02-15T01:50:09.723Z,96559.94
2018-02-15T01:52:35.591Z,96559.16
2018-02-15T01:55:01.445Z,96553.11
2018-02-15T01:57:27.338Z,96552.68
2018-02-15T01:59:53.153Z,96546.67
2018-02-15T02:02:19.046Z,96541.44
2018-02-15T02:04:44.877Z,96539.33
2018-02-15T02:07:10.715Z,96524.90
2018-02-15T02:09:36.578Z,96523.02
2018-02-15T02:12:02.408Z,96518.38
2018-02-15T02:14:28.243Z,96517.10
2018-02-15T02:16:54.074Z,96513.27
2018-02-15T02:19:19.942Z,96510.52
2018-02-15T02:21:45.782Z,96500.61
2018-02-15T02:24:11.658Z,96507.68
2018-02-15T02:26:37.497Z,96498.33
2018-02-15T02:29:03.413Z,96495.35
2018-02-15T02:31:29.265Z,96495.00
2018-02-15T02:33:55.093Z,96488.96
2018-02-15T02:36:20.955Z,96484.03
2018-02-15T02:38:48.337Z,96487.81
2018-02-15T02:41:14.157Z,96488.61
2018-02-15T02:46:10.898Z,96493.94
2018-02-15T02:48:38.271Z,96486.63
2018-02-15T02:51:04.109Z,96488.76
2018-02-15T02:53:32.861Z,96485.88
2018-02-15T02:55:58.682Z,96474.80
2018-02-15T02:58:28.974Z,96475.17
2018-02-15T03:00:54.825Z,96463.24
2018-02-15T03:03:22.480Z,96466.04
2018-02-15T03:05:48.319Z,96463.94
2018-02-15T03:08:14.161Z,96464.34
2018-02-15T03:10:40.022Z,96464.77
2018-02-15T03:13:05.864Z,96462.84
2018-02-15T03:15:35.544Z,96465.37
2018-02-15T03:18:01.375Z,96461.85
2018-02-15T03:20:30.675Z,96456.82
2018-02-15T03:22:56.516Z,96455.91
2018-02-15T03:25:23.696Z,96463.24
2018-02-15T03:27:49.563Z,96463.61
2018-02-15T03:30:18.790Z,96465.17
2018-02-15T03:32:44.659Z,96470.53
2018-02-15T03:35:14.528Z,96457.28
2018-02-15T03:37:40.389Z,96460.52
2018-02-15T03:40:07.551Z,96457.14
2018-02-15T03:42:33.393Z,96455.06
2018-02-15T03:44:59.257Z,96458.34
2018-02-15T03:47:25.093Z,96463.08
2018-02-15T03:49:50.932Z,96456.80
2018-02-15T03:52:20.356Z,96449.23
2018-02-15T03:54:46.199Z,96441.68
2018-02-15T03:57:15.657Z,96441.20
2018-02-15T03:59:41.490Z,96438.20
2018-02-15T04:02:09.175Z,96444.16
2018-02-15T04:04:35.034Z,96437.81
2018-02-15T04:07:04.522Z,96436.63
2018-02-15T04:09:30.375Z,96425.50
2018-02-15T04:11:59.640Z,96423.71
2018-02-15T04:14:25.509Z,96432.73
2018-02-15T04:16:54.457Z,96430.80
2018-02-15T04:19:20.298Z,96424.88
2018-02-15T04:21:46.161Z,96427.02
2018-02-15T04:24:12.033Z,96424.83
2018-02-15T04:26:37.875Z,96422.27
2018-02-15T04:29:05.156Z,96436.00
2018-02-15T04:31:30.992Z,96440.23
2018-02-15T04:34:00.115Z,96444.02
2018-02-15T04:36:25.958Z,96452.70
2018-02-15T04:38:55.524Z,96457.31
2018-02-15T04:41:21.343Z,96461.61
2018-02-15T04:43:50.298Z,96474.42
2018-02-15T04:46:16.146Z,96476.95
2018-02-15T04:48:43.963Z,96467.43
2018-02-15T04:51:09.821Z,96471.66
2018-02-15T04:53:38.902Z,96470.95
2018-02-15T04:56:04.803Z,96473.26
2018-02-15T04:58:30.734Z,96470.39
2018-02-15T05:00:56.587Z,96468.96
2018-02-15T05:03:22.444Z,96477.75
2018-02-15T05:05:49.749Z,96476.98
2018-02-15T05:08:15.580Z,96466.23
2018-02-15T05:10:44.744Z,96476.75
2018-02-15T05:13:10.571Z,96474.05
2018-02-15T05:15:39.664Z,96472.11
2018-02-15T05:18:05.560Z,96468.58
2018-02-15T05:20:34.492Z,96466.78
2018-02-15T05:23:00.331Z,96461.30
2018-02-15T05:25:29.463Z,96457.95
2018-02-15T05:27:55.283Z,96456.23
2018-02-15T05:30:24.329Z,96455.45
2018-02-15T05:32:50.209Z,96454.13
2018-02-15T05:35:16.068Z,96452.31
2018-02-15T05:37:41.886Z,96449.02
2018-02-15T05:40:07.752Z,96450.88
2018-02-15T05:42:35.235Z,96441.22
2018-02-15T05:45:01.077Z,96443.04
2018-02-15T05:47:30.262Z,96445.84
2018-02-15T05:49:56.121Z,96445.05
2018-02-15T05:52:25.857Z,96451.42
2018-02-15T05:54:51.719Z,96447.25
2018-02-15T05:57:20.691Z,96445.78
2018-02-15T05:59:46.539Z,96443.47
2018-02-15T06:02:15.545Z,96446.23
2018-02-15T06:04:41.372Z,96440.72
2018-02-15T06:07:08.855Z,96446.97
2018-02-15T06:09:34.753Z,96450.03
2018-02-15T06:12:00.613Z,96444.88
2018-02-15T06:14:26.486Z,96457.36
2018-02-15T06:16:52.436Z,96456.18
2018-02-15T06:19:21.427Z,96451.52
2018-02-15T06:21:47.326Z,96455.45
2018-02-15T06:24:14.933Z,96445.08
2018-02-15T06:26:40.831Z,96451.22
2018-02-15T06:31:37.665Z,96452.67
2018-02-15T06:34:05.097Z,96442.28
2018-02-15T06:36:31.020Z,96442.88
2018-02-15T06:39:00.135Z,96438.74
2018-02-15T06:41:26.022Z,96447.52
2018-02-15T06:43:55.035Z,96442.39
2018-02-15T06:46:20.938Z,96439.42
2018-02-15T06:48:46.830Z,96439.72
2018-02-15T06:51:12.709Z,96441.33
2018-02-15T06:53:38.609Z,96439.98
2018-02-15T06:56:06.039Z,96449.28
2018-02-15T06:58:31.920Z,96454.30
2018-02-15T07:01:00.857Z,96448.19
2018-02-15T07:03:26.769Z,96456.91
2018-02-15T07:05:55.989Z,96453.64
2018-02-15T07:08:21.886Z,96450.55
2018-02-15T07:10:50.909Z,96455.36
2018-02-15T07:13:16.792Z,96458.38
2018-02-15T07:15:45.820Z,96454.97
2018-02-15T07:18:11.728Z,96461.75
2018-02-15T07:20:40.950Z,96455.60
2018-02-15T07:23:06.846Z,96464.34
2018-02-15T07:25:32.742Z,96460.23
2018-02-15T07:27:58.600Z,96465.39
2018-02-15T07:30:24.479Z,96468.16
2018-02-15T07:32:51.609Z,96478.00
2018-02-15T07:35:17.487Z,96478.56
2018-02-15T07:37:46.515Z,96481.71
2018-02-15T07:40:12.421Z,96481.12
2018-02-15T07:42:41.696Z,96490.09
2018-02-15T07:45:07.572Z,96487.42
2018-02-15T07:47:37.031Z,96492.09
2018-02-15T07:50:02.958Z,96494.30
2018-02-15T07:52:30.072Z,96492.95
2018-02-15T07:54:55.990Z,96481.74
2018-02-15T07:57:24.792Z,96473.81
2018-02-15T07:59:50.688Z,96471.70
2018-02-15T08:02:16.568Z,96469.11
2018-02-15T08:04:42.468Z,96465.80
2018-02-15T08:07:08.380Z,96462.13
2018-02-15T08:09:36.269Z,96469.67
2018-02-15T08:12:02.152Z,96472.08
2018-02-15T08:14:31.840Z,96476.42
2018-02-15T08:16:57.705Z,96487.16
2018-02-15T08:19:27.293Z,96482.84
2018-02-15T08:21:53.150Z,96476.81
2018-02-15T08:24:22.259Z,96485.69
2018-02-15T08:26:48.144Z,96480.11
2018-02-15T08:29:17.117Z,96476.02
2018-02-15T08:31:42.981Z,96478.44
2018-02-15T08:34:10.337Z,96481.36
2018-02-15T08:36:36.225Z,96482.86
2018-02-15T08:39:02.135Z,96471.20
2018-02-15T08:41:28.050Z,96475.49
2018-02-15T08:43:53.909Z,96468.58
2018-02-15T08:46:23.342Z,96476.17
2018-02-15T08:48:49.261Z,96467.61
2018-02-15T08:51:16.816Z,96468.73
2018-02-15T08:53:42.727Z,96470.16
2018-02-15T08:56:12.314Z,96475.09
2018-02-15T08:58:38.181Z,96467.23
2018-02-15T09:01:07.558Z,96467.24
2018-02-15T09:03:33.562Z,96467.82
2018-02-15T09:06:00.536Z,96456.06
2018-02-15T09:08:26.403Z,96441.89
2018-02-15T09:10:55.723Z,96442.01
2018-02-15T09:13:21.654Z,96436.95
2018-02-15T09:15:47.555Z,96446.06
2018-02-15T09:18:13.468Z,96443.79
2018-02-15T09:20:39.375Z,96458.60
2018-02-15T09:23:07.206Z,96455.39
2018-02-15T09:25:33.070Z,96448.23
2018-02-15T09:28:01.738Z,96467.84
2018-02-15T09:30:27.648Z,96451.39
2018-02-15T09:32:56.380Z,96447.31
2018-02-15T09:35:22.261Z,96452.70
2018-02-15T09:37:51.648Z,96435.50
2018-02-15T09:40:17.547Z,96443.16
2018-02-15T09:42:46.700Z,96438.87
2018-02-15T09:45:12.565Z,96444.31
2018-02-15T09:47:42.072Z,96449.09
2018-02-15T09:50:07.996Z,96450.84
2018-02-15T09:52:33.892Z,96447.34
2018-02-15T09:54:59.812Z,96445.21
2018-02-15T09:57:25.689Z,96441.97
2018-02-15T09:59:53.102Z,96451.59
2018-02-15T10:02:18.990Z,96458.45
2018-02-15T10:04:47.965Z,96457.39
2018-02-15T10:07:13.857Z,96455.93
2018-02-15T10:09:43.076Z,96451.36
2018-02-15T10:12:08.987Z,96441.05
2018-02-15T10:14:36.672Z,96441.20
2018-02-15T10:17:02.579Z,96447.50
2018-02-15T10:19:31.862Z,96446.70
2018-02-15T10:21:57.759Z,96445.23
2018-02-15T10:24:26.956Z,96443.37
2018-02-15T10:26:52.833Z,96448.63
2018-02-15T10:29:18.728Z,96456.41
2018-02-15T10:31:44.611Z,96463.02
2018-02-15T10:34:10.494Z,96461.47
2018-02-15T10:36:37.553Z,96462.28
2018-02-15T10:39:03.477Z,96457.06
2018-02-15T10:41:32.338Z,96450.14
2018-02-15T10:43:58.242Z,96450.80
2018-02-15T10:46:26.965Z,96448.08
2018-02-15T10:48:52.853Z,96441.49
2018-02-15T10:51:22.570Z,96436.40
2018-02-15T10:53:48.458Z,96437.45
2018-02-15T10:56:17.987Z,96435.89
2018-02-15T10:58:43.893Z,96439.82
2018-02-15T11:01:17.658Z,96438.25
2018-02-15T11:03:43.581Z,96436.08
2018-02-15T11:06:09.436Z,96442.96
2018-02-15T11:08:35.349Z,96435.56
2018-02-15T11:11:01.226Z,96435.75
2018-02-15T11:13:27.130Z,96436.02
2018-02-15T11:15:53.019Z,96438.25
2018-02-15T11:18:18.898Z,96435.59
2018-02-15T11:20:44.791Z,96429.89
2018-02-15T11:23:12.395Z,96432.38
2018-02-15T11:25:38.305Z,96429.86
2018-02-15T11:28:07.142Z,96440.56
2018-02-15T11:30:33.057Z,96429.64
2018-02-15T11:33:01.764Z,96438.69
2018-02-15T11:35:27.667Z,96440.58
2018-02-15T11:37:57.141Z,96443.23
2018-02-15T11:40:23.066Z,96442.98
2018-02-15T11:42:48.935Z,96444.91
2018-02-15T11:45:14.798Z,96446.23
2018-02-15T11:47:40.781Z,96448.55
2018-02-15T11:50:08.129Z,96450.69
2018-02-15T11:52:34.062Z,96446.92
2018-02-15T11:55:03.468Z,96452.36
2018-02-15T11:57:29.357Z,96440.58
2018-02-15T11:59:58.797Z,96443.11
2018-02-15T12:02:24.690Z,96444.14
2018-02-15T12:04:52.296Z,96448.13
2018-02-15T12:07:18.191Z,96445.89
2018-02-15T12:09:47.373Z,96445.42
2018-02-15T12:12:13.305Z,96445.67
2018-02-15T12:14:42.907Z,96440.10
2018-02-15T12:17:08.818Z,96441.27
2018-02-15T12:19:34.707Z,96438.34
2018-02-15T12:22:00.602Z,96441.41
2018-02-15T12:24:26.514Z,96437.19
2018-02-15T12:26:53.952Z,96434.22
2018-02-15T12:29:19.866Z,96431.82
2018-02-15T12:31:49.601Z,96432.34
2018-02-15T12:34:15.503Z,96438.09
2018-02-15T12:36:44.730Z,96433.03
2018-02-15T12:39:10.647Z,96427.85
2018-02-15T12:41:37.673Z,96433.67
2018-02-15T12:44:03.562Z,96437.35
2018-02-15T12:46:32.233Z,96428.86
2018-02-15T12:48:58.204Z,96433.86
2018-02-15T12:51:27.605Z,96430.90
2018-02-15T12:53:53.548Z,96427.08
2018-02-15T12:56:19.446Z,96426.74
2018-02-15T12:58:45.317Z,96424.20
2018-02-15T13:01:11.209Z,96428.64
2018-02-15T13:03:38.696Z,96423.36
2018-02-15T13:06:04.605Z,96422.38
2018-02-15T13:08:34.024Z,96424.87
2018-02-15T13:10:59.914Z,96430.69
2018-02-15T13:13:30.817Z,96433.54
2018-02-15T13:16:09.047Z,96443.40
2018-02-15T13:18:34.943Z,96436.07
2018-02-15T13:21:00.858Z,96440.13
2018-02-15T13:23:26.766Z,96433.81
2018-02-15T13:25:52.694Z,96432.61
2018-02-15T13:28:29.780Z,96432.00
2018-02-15T13:30:55.665Z,96439.67
2018-02-15T13:33:21.553Z,96439.55
2018-02-15T13:35:47.433Z,96440.98
2018-02-15T13:38:13.294Z,96440.38
2018-02-15T13:40:39.190Z,96447.14
2018-02-15T13:43:05.088Z,96445.56
2018-02-15T13:45:30.968Z,96453.38
2018-02-15T13:47:56.859Z,96452.28
2018-02-15T13:50:22.754Z,96446.56
2018-02-15T13:52:48.670Z,96448.61
2018-02-15T13:55:14.582Z,96443.89
2018-02-15T13:57:40.448Z,96445.33
2018-02-15T14:00:06.339Z,96455.45
2018-02-15T14:02:32.210Z,96444.47
2018-02-15T14:04:58.099Z,96451.14
2018-02-15T14:07:23.951Z,96448.42
2018-02-15T14:09:49.847Z,96445.94
2018-02-15T14:12:15.779Z,96449.02
2018-02-15T14:14:41.684Z,96440.86
2018-02-15T14:17:11.420Z,96445.24
2018-02-15T14:19:37.295Z,96454.22
2018-02-15T14:22:04.290Z,96446.86
2018-02-15T14:24:30.165Z,96449.37
2018-02-15T14:26:58.967Z,96444.85
2018-02-15T14:29:24.858Z,96454.05
2018-02-15T14:31:54.514Z,96460.89
2018-02-15T14:34:20.389Z,96460.62
2018-02-15T14:36:49.918Z,96467.34
2018-02-15T14:39:15.809Z,96471.50
2018-02-15T14:41:44.874Z,96474.73
2018-02-15T14:44:10.774Z,96475.33
2018-02-15T14:46:36.646Z,96482.70
2018-02-15T14:49:02.542Z,96484.75
2018-02-15T14:51:28.430Z,96495.34
2018-02-15T14:53:54.916Z,96493.53
2018-02-15T14:56:20.790Z,96494.77
2018-02-15T14:58:50.269Z,96498.03
2018-02-15T15:01:16.144Z,96500.13
2018-02-15T15:03:45.309Z,96503.73
2018-02-15T15:06:11.203Z,96509.08
2018-02-15T15:08:40.577Z,96501.74
2018-02-15T15:11:06.483Z,96501.13
2018-02-15T15:13:33.650Z,96506.71
2018-02-15T15:15:59.526Z,96504.22
2018-02-15T15:18:28.899Z,96500.69
2018-02-15T15:20:54.818Z,96501.01
2018-02-15T15:23:20.715Z,96498.77
2018-02-15T15:25:46.614Z,96502.25
2018-02-15T15:28:12.465Z,96503.88
2018-02-15T15:30:39.831Z,96507.80
2018-02-15T15:33:05.705Z,96504.42
2018-02-15T15:38:02.466Z,96510.71
2018-02-15T15:40:30.046Z,96511.89
2018-02-15T15:42:55.933Z,96508.88
2018-02-15T15:45:25.108Z,96512.19
2018-02-15T15:47:51.024Z,96517.78
2018-02-15T15:50:20.343Z,96515.75
2018-02-15T15:52:46.238Z,96514.56
2018-02-15T15:55:13.558Z,96517.41
2018-02-15T15:57:39.430Z,96516.71
2018-02-15T16:00:05.347Z,96514.20
2018-02-15T16:02:31.252Z,96520.37
2018-02-15T16:04:57.138Z,96524.89
2018-02-15T16:07:26.839Z,96525.27
2018-02-15T16:09:52.722Z,96531.61
2018-02-15T16:12:21.783Z,96535.77
2018-02-15T16:14:47.680Z,96536.58
2018-02-15T16:17:15.602Z,96539.00
2018-02-15T16:19:41.465Z,96533.29
2018-02-15T16:22:10.751Z,96530.22
2018-02-15T16:24:36.627Z,96533.67
2018-02-15T16:27:05.927Z,96529.05
2018-02-15T16:29:31.809Z,96532.59
2018-02-15T16:31:58.857Z,96528.34
2018-02-15T16:34:24.764Z,96536.36
2018-02-15T16:36:50.628Z,96530.61
2018-02-15T16:39:16.514Z,96542.02
2018-02-15T16:41:42.422Z,96548.74
2018-02-15T16:44:11.991Z,96558.73
2018-02-15T16:46:37.894Z,96561.72
2018-02-15T16:49:07.039Z,96553.38
2018-02-15T16:51:32.899Z,96560.42
2018-02-15T16:54:00.293Z,96556.34
2018-02-15T16:56:26.178Z,96558.86
2018-02-15T16:58:55.361Z,96565.70
2018-02-15T17:01:21.283Z,96566.88
2018-02-15T17:03:50.534Z,96568.19
2018-02-15T17:06:16.451Z,96568.98
2018-02-15T17:08:46.094Z,96577.28
2018-02-15T17:11:12.043Z,96575.83
2018-02-15T17:13:37.916Z,96572.16
2018-02-15T17:16:03.798Z,96572.66
2018-02-15T17:18:29.682Z,96561.22
2018-02-15T17:20:55.860Z,96564.09
2018-02-15T17:23:21.742Z,96553.38
2018-02-15T17:25:50.671Z,96554.33
2018-02-15T17:28:16.548Z,96562.72
2018-02-15T17:30:46.402Z,96561.83
2018-02-15T17:33:12.299Z,96559.93
2018-02-15T17:35:41.883Z,96564.50
2018-02-15T17:38:07.795Z,96564.09
2018-02-15T17:40:35.212Z,96571.77
2018-02-15T17:43:01.091Z,96567.73
2018-02-15T17:45:30.039Z,96577.00
2018-02-15T17:47:55.918Z,96574.83
2018-02-15T17:50:21.798Z,96581.78
2018-02-15T17:52:47.670Z,96582.12
2018-02-15T17:55:13.544Z,96579.31
2018-02-15T17:57:42.475Z,96582.28
2018-02-15T18:00:08.359Z,96588.63
2018-02-15T18:02:37.698Z,96590.24
2018-02-15T18:05:03.560Z,96593.79
2018-02-15T18:07:31.225Z,96589.64
2018-02-15T18:09:57.123Z,96595.39
2018-02-15T18:12:26.833Z,96595.98
2018-02-15T18:14:52.721Z,96601.27
2018-02-15T18:17:21.907Z,96597.59
2018-02-15T18:19:47.786Z,96604.77
2018-02-15T18:22:14.984Z,96604.88
2018-02-15T18:24:40.851Z,96611.28
2018-02-15T18:27:06.741Z,96610.75
2018-02-15T18:29:32.612Z,96614.34
2018-02-15T18:31:58.489Z,96614.78
2018-02-15T18:34:27.510Z,96617.11
2018-02-15T18:36:53.404Z,96623.24
2018-02-15T18:39:22.843Z,96624.22
2018-02-15T18:41:48.712Z,96623.30
2018-02-15T18:44:16.442Z,96619.05
2018-02-15T18:46:42.362Z,96620.45
2018-02-15T18:49:11.791Z,96618.51
2018-02-15T18:51:37.736Z,96617.44
2018-02-15T18:54:06.828Z,96616.99
2018-02-15T18:56:32.702Z,96615.21
2018-02-15T18:59:01.830Z,96616.30
2018-02-15T19:01:27.706Z,96615.38
2018-02-15T19:03:53.696Z,96614.36
2018-02-15T19:06:19.653Z,96612.80
2018-02-15T19:08:45.563Z,96610.59
2018-02-15T19:11:11.797Z,96616.99
2018-02-15T19:13:37.691Z,96607.94
2018-02-15T19:16:06.716Z,96620.50
2018-02-15T19:18:32.626Z,96624.76
2018-02-15T19:21:01.444Z,96616.92
2018-02-15T19:23:27.315Z,96619.77
2018-02-15T19:25:56.167Z,96622.84
2018-02-15T19:28:22.046Z,96622.95
2018-02-15T19:30:51.922Z,96623.94
2018-02-15T19:33:17.827Z,96618.88
2018-02-15T19:35:45.671Z,96624.14
2018-02-15T19:38:11.520Z,96622.96
2018-02-15T19:40:37.412Z,96619.16
2018-02-15T19:43:03.286Z,96614.55
2018-02-15T19:45:29.159Z,96611.64
2018-02-15T19:47:58.595Z,96615.13
2018-02-15T19:50:24.486Z,96620.61
2018-02-15T19:52:52.049Z,96620.02
2018-02-15T19:55:17.902Z,96618.26
2018-02-15T19:57:46.638Z,96609.77
2018-02-15T20:00:12.501Z,96612.58
2018-02-15T20:02:41.198Z,96611.70
2018-02-15T20:05:07.153Z,96603.88
2018-02-15T20:07:36.700Z,96610.06
2018-02-15T20:10:02.578Z,96608.03
2018-02-15T20:12:32.186Z,96603.25
2018-02-15T20:14:58.085Z,96606.93
2018-02-15T20:17:24.003Z,96609.50
2018-02-15T20:19:56.028Z,96607.77
2018-02-15T20:22:21.928Z,96609.56
2018-02-15T20:24:47.848Z,96596.73
2018-02-15T20:27:19.869Z,96608.95
2018-02-15T20:29:45.753Z,96609.01
2018-02-15T20:32:11.651Z,96599.14
2018-02-15T20:34:37.543Z,96603.77
2018-02-15T20:37:03.452Z,96615.41
2018-02-15T20:39:35.534Z,96613.16
2018-02-15T20:42:01.436Z,96622.14
2018-02-15T20:44:27.334Z,96631.00
2018-02-15T20:46:53.234Z,96631.07
2018-02-15T20:49:25.145Z,96636.04
2018-02-15T20:51:57.184Z,96637.33
2018-02-15T20:54:29.288Z,96646.11
2018-02-15T20:56:55.259Z,96646.17
2018-02-15T20:59:21.148Z,96648.81
2018-02-15T21:01:47.066Z,96648.61
2018-02-15T21:04:12.934Z,96650.41
2018-02-15T21:06:38.838Z,96652.39
2018-02-15T21:09:05.554Z,96648.19
2018-02-15T21:11:31.461Z,96658.42
2018-02-15T21:13:57.384Z,96658.70
2018-02-15T21:16:23.262Z,96659.23
2018-02-15T21:18:49.155Z,96654.77
2018-02-15T21:21:15.034Z,96653.58
2018-02-15T21:23:40.894Z,96651.42
2018-02-15T21:26:06.818Z,96663.83
2018-02-15T21:28:32.685Z,96659.12
2018-02-15T21:30:58.565Z,96663.50
2018-02-15T21:33:24.757Z,96655.59
2018-02-15T21:35:50.675Z,96673.35
2018-02-15T21:38:16.585Z,96675.52
2018-02-15T21:40:42.569Z,96670.51
2018-02-15T21:43:08.469Z,96679.77
2018-02-15T21:45:34.362Z,96690.02
2018-02-15T21:48:04.068Z,96697.28
2018-02-15T21:50:29.972Z,96695.83
2018-02-15T21:52:57.370Z,96708.21
2018-02-15T21:55:23.255Z,96706.17
2018-02-15T21:57:52.152Z,96711.67
2018-02-15T22:00:18.051Z,96706.33
2018-02-15T22:02:47.621Z,96707.52
2018-02-15T22:05:13.485Z,96708.27
2018-02-15T22:07:39.362Z,96712.38
2018-02-15T22:10:05.246Z,96723.84
2018-02-15T22:12:31.131Z,96721.33
2018-02-15T22:14:58.658Z,96729.52
2018-02-15T22:17:24.577Z,96734.36
2018-02-15T22:19:54.205Z,96742.38
2018-02-15T22:22:20.082Z,96738.13
2018-02-15T22:24:48.923Z,96748.24
2018-02-15T22:27:14.762Z,96745.78
2018-02-15T22:29:44.047Z,96743.93
2018-02-15T22:32:09.869Z,96748.02
2018-02-15T22:34:39.068Z,96737.70
2018-02-15T22:37:04.900Z,96744.98
2018-02-15T22:39:31.873Z,96741.09
2018-02-15T22:41:57.727Z,96749.33
2018-02-15T22:44:23.590Z,96756.66
2018-02-15T22:46:49.451Z,96757.30
2018-02-15T22:49:15.334Z,96762.39
2018-02-15T22:51:44.361Z,96748.02
2018-02-15T22:54:10.223Z,96760.78
2018-02-15T22:56:39.637Z,96758.58
2018-02-15T22:59:05.494Z,96764.66
2018-02-15T23:01:34.833Z,96763.16
2018-02-15T23:04:00.682Z,96764.30
2018-02-15T23:06:27.870Z,96766.14
2018-02-15T23:08:53.691Z,96771.09
2018-02-15T23:11:22.469Z,96782.14
2018-02-15T23:13:48.312Z,96785.70
2018-02-15T23:18:45.088Z,96785.16
2018-02-15T23:21:10.967Z,96798.69
2018-02-15T23:23:36.803Z,96798.14
2018-02-15T23:26:02.723Z,96802.14
2018-02-15T23:28:29.634Z,96803.11
2018-02-15T23:30:55.487Z,96802.32
2018-02-15T23:33:24.977Z,96810.50
2018-02-15T23:35:50.845Z,96813.40
2018-02-15T23:38:20.029Z,96819.34
2018-02-15T23:40:45.892Z,96833.58
2018-02-15T23:43:14.865Z,96832.38
2018-02-15T23:45:40.697Z,96845.42
2018-02-15T23:48:07.897Z,96849.25
2018-02-15T23:50:33.764Z,96859.41
2018-02-15T23:53:02.694Z,96861.23
2018-02-15T23:55:28.520Z,96858.66
2018-02-15T23:57:54.378Z,96862.23
